Terminal Aerodrome Forecast
Issued by NWS

Home | Current Version | Previous Version | Text Only | Print | Product List | Glossary On
Versions: 1 2 3 4 5 6 7 8 9 10 11 12 13 14 15 16 17 18
000
FTUS43 KABR 241700
TAFPIR
TAF
KPIR 241733Z 2418/2518 30020G28KT P6SM FEW090
     FM250200 VRB06KT P6SM FEW150
     FM251500 22007KT P6SM SCT120=

USA.gov is the U.S. government's official web portal to all federal, state and local government web resources and services.